Time;durP1;ratioP1;P1;durP2;ratioP2;P2;SDS_P1;SDS_P2;PMS_P1;PMS_P2;Temp;Humidity;BMP_temperature;BMP_pressure;BME280_temperature;BME280_humidity;BME280_pressure;Samples;Min_cycle;Max_cycle;Signal;HPM_P1;HPM_P2
2022/09/28 00:00:13;;;;;;;;;;;;;;;;;;1899268;28;7025;-68
2022/09/28 00:01:18;;;;;;;;;;;;;;;;;;1899665;28;7049;-66
2022/09/28 00:02:16;;;;;;;;;;;;;;;;;;1894857;28;7132;-67
2022/09/28 00:03:13;;;;;;;;;;;;;;;;;;1897315;28;7084;-68
2022/09/28 00:04:11;;;;;;;;;;;;;;;;;;1895153;28;7319;-69
2022/09/28 00:05:10;;;;;;;;;;;;;;;;;;1896326;28;7111;-67
2022/09/28 00:06:10;;;;;;;;;;;;;;;;;;1895007;28;7088;-68
2022/09/28 00:07:07;;;;;;;;;;;;;;;;;;1896465;28;7017;-67
2022/09/28 00:08:04;;;;;;;;;;;;;;;;;;1897050;28;7120;-68
2022/09/28 00:09:02;;;;;;;;;;;;;;;;;;1897012;28;7092;-67
2022/09/28 00:10:00;;;;;;;;;;;;;;;;;;1896402;28;7153;-69
2022/09/28 00:10:57;;;;;;;;;;;;;;;;;;1899357;28;7050;-68
2022/09/28 00:11:56;;;;;;;;;;;;;;;;;;1897385;28;8434;-68
2022/09/28 00:12:56;;;;;;;;;;;;;;;;;;1898145;28;7006;-67
2022/09/28 00:13:56;;;;;;;;;;;;;;;;;;1896588;28;7042;-69
2022/09/28 00:14:54;;;;;;;;;;;;;;;;;;1894758;28;7009;-68
2022/09/28 00:16:05;;;;;;;;;;;;;;;;;;1896068;28;7396;-68
2022/09/28 00:17:02;;;;;;;;;;;;;;;;;;1896053;28;7092;-67
2022/09/28 00:17:59;;;;;;;;;;;;;;;;;;1893062;28;7006;-68
2022/09/28 00:18:57;;;;;;;;;;;;;;;;;;1895595;28;7097;-68
2022/09/28 00:19:56;;;;;;;;;;;;;;;;;;1896714;28;7014;-68
2022/09/28 00:21:04;;;;;;;;;;;;;;;;;;1903322;28;8027;-68
2022/09/28 00:22:02;;;;;;;;;;;;;;;;;;1903380;28;7084;-67
2022/09/28 00:22:59;;;;;;;;;;;;;;;;;;1897072;28;7045;-67
2022/09/28 00:24:17;;;;;;;;;;;;;;;;;;1895152;28;7050;-66
2022/09/28 00:25:15;;;;;;;;;;;;;;;;;;1894487;28;7419;-67
2022/09/28 00:26:13;;;;;;;;;;;;;;;;;;1896242;28;7104;-67
2022/09/28 00:27:10;;;;;;;;;;;;;;;;;;1897059;28;7092;-67
2022/09/28 00:28:07;;;;;;;;;;;;;;;;;;1893699;28;7092;-68
2022/09/28 00:29:06;;;;;;;;;;;;;;;;;;1895953;28;7029;-68
2022/09/28 00:30:04;;;;;;;;;;;;;;;;;;1896314;28;7100;-68
2022/09/28 00:31:01;;;;;;;;;;;;;;;;;;1896122;28;7014;-67
2022/09/28 00:32:01;;;;;;;;;;;;;;;;;;1896650;28;7272;-68
2022/09/28 00:32:58;;;;;;;;;;;;;;;;;;1897345;28;7034;-66
2022/09/28 00:33:56;;;;;;;;;;;;;;;;;;1896957;28;7096;-68
2022/09/28 00:34:53;;;;;;;;;;;;;;;;;;1896988;28;7006;-67
2022/09/28 00:35:55;;;;;;;;;;;;;;;;;;1896604;28;7002;-68
2022/09/28 00:36:53;;;;;;;;;;;;;;;;;;1896678;28;7025;-68
2022/09/28 00:37:51;;;;;;;;;;;;;;;;;;1896557;28;7006;-68
2022/09/28 00:38:49;;;;;;;;;;;;;;;;;;1896855;28;7108;-67
2022/09/28 00:39:47;;;;;;;;;;;;;;;;;;1895169;28;8381;-67
2022/09/28 00:40:45;;;;;;;;;;;;;;;;;;1897105;28;7120;-68
2022/09/28 00:41:43;;;;;;;;;;;;;;;;;;1895375;28;7006;-68
2022/09/28 00:42:41;;;;;;;;;;;;;;;;;;1896840;28;7312;-67
2022/09/28 00:43:39;;;;;;;;;;;;;;;;;;1896787;28;7400;-67
2022/09/28 00:44:46;;;;;;;;;;;;;;;;;;1896701;28;7009;-68
2022/09/28 00:45:46;;;;;;;;;;;;;;;;;;1896602;28;7025;-69
2022/09/28 00:46:44;;;;;;;;;;;;;;;;;;1897031;28;7371;-66
2022/09/28 00:47:50;;;;;;;;;;;;;;;;;;1896536;28;8120;-68
2022/09/28 00:48:57;;;;;;;;;;;;;;;;;;1896126;28;7141;-67
2022/09/28 00:50:14;;;;;;;;;;;;;;;;;;1896450;28;7140;-68
2022/09/28 00:51:12;;;;;;;;;;;;;;;;;;1895387;28;7137;-67
2022/09/28 00:52:17;;;;;;;;;;;;;;;;;;1896741;28;7050;-68
2022/09/28 00:53:20;;;;;;;;;;;;;;;;;;1896823;28;7348;-68
2022/09/28 00:54:17;;;;;;;;;;;;;;;;;;1896100;28;7010;-68
2022/09/28 00:55:20;;;;;;;;;;;;;;;;;;1896351;28;7006;-68
2022/09/28 00:56:20;;;;;;;;;;;;;;;;;;1895952;28;7441;-67
2022/09/28 00:57:19;;;;;;;;;;;;;;;;;;1896233;28;7116;-69
2022/09/28 00:58:19;;;;;;;;;;;;;;;;;;1895891;28;7030;-68
2022/09/28 00:59:17;;;;;;;;;;;;;;;;;;1896600;28;7005;-66
2022/09/28 01:00:14;;;;;;;;;;;;;;;;;;1896453;28;7093;-68
2022/09/28 01:01:12;;;;;;;;;;;;;;;;;;1896634;28;7005;-69
2022/09/28 01:02:10;;;;;;;;;;;;;;;;;;1896474;28;7153;-68
2022/09/28 01:03:08;;;;;;;;;;;;;;;;;;1897016;28;7031;-67
2022/09/28 01:04:06;;;;;;;;;;;;;;;;;;1895075;28;7105;-68
2022/09/28 01:05:05;;;;;;;;;;;;;;;;;;1895903;28;7009;-69
2022/09/28 01:06:06;;;;;;;;;;;;;;;;;;1894899;28;7646;-68
2022/09/28 01:07:06;;;;;;;;;;;;;;;;;;1896676;28;8161;-67
2022/09/28 01:08:04;;;;;;;;;;;;;;;;;;1896444;28;7006;-68
2022/09/28 01:09:04;;;;;;;;;;;;;;;;;;1894827;28;7578;-66
2022/09/28 01:10:03;;;;;;;;;;;;;;;;;;1896074;28;7285;-67
2022/09/28 01:11:01;;;;;;;;;;;;;;;;;;1896367;28;7113;-66
2022/09/28 01:11:58;;;;;;;;;;;;;;;;;;1894874;28;7152;-68
2022/09/28 01:12:56;;;;;;;;;;;;;;;;;;1895831;28;7037;-67
2022/09/28 01:13:56;;;;;;;;;;;;;;;;;;1894880;28;7046;-68
2022/09/28 01:14:56;;;;;;;;;;;;;;;;;;1885649;28;7013;-67
2022/09/28 01:15:59;;;;;;;;;;;;;;;;;;1880540;28;7623;-65
2022/09/28 01:16:56;;;;;;;;;;;;;;;;;;1884778;28;7110;-68
2022/09/28 01:18:07;;;;;;;;;;;;;;;;;;1895092;28;7116;-67
2022/09/28 01:19:22;;;;;;;;;;;;;;;;;;1890000;28;8040;-68
2022/09/28 01:20:30;;;;;;;;;;;;;;;;;;1893875;28;7009;-68
2022/09/28 01:21:27;;;;;;;;;;;;;;;;;;1888605;28;7025;-67
2022/09/28 01:22:33;;;;;;;;;;;;;;;;;;1896035;28;7006;-68
2022/09/28 01:23:31;;;;;;;;;;;;;;;;;;1892570;28;7100;-68
2022/09/28 01:24:47;;;;;;;;;;;;;;;;;;1892412;28;7342;-68
2022/09/28 01:25:54;;;;;;;;;;;;;;;;;;1895691;28;7092;-66
2022/09/28 01:26:51;;;;;;;;;;;;;;;;;;1895347;28;7549;-67
2022/09/28 01:28:03;;;;;;;;;;;;;;;;;;1896551;28;7117;-67
2022/09/28 01:29:12;;;;;;;;;;;;;;;;;;1887927;28;7054;-68
2022/09/28 01:30:14;;;;;;;;;;;;;;;;;;1888856;28;7010;-68
2022/09/28 01:31:14;;;;;;;;;;;;;;;;;;1895819;28;7046;-68
2022/09/28 01:32:12;;;;;;;;;;;;;;;;;;1888023;28;7096;-67
2022/09/28 01:33:14;;;;;;;;;;;;;;;;;;1883264;28;8035;-68
2022/09/28 01:34:24;;;;;;;;;;;;;;;;;;1887148;28;7057;-68
2022/09/28 01:35:21;;;;;;;;;;;;;;;;;;1891541;28;7097;-67
2022/09/28 01:36:28;;;;;;;;;;;;;;;;;;1895873;28;7010;-66
2022/09/28 01:37:31;;;;;;;;;;;;;;;;;;1895001;28;7038;-67
2022/09/28 01:38:33;;;;;;;;;;;;;;;;;;1892053;28;8020;-67
2022/09/28 01:39:34;;;;;;;;;;;;;;;;;;1892171;28;7050;-68
2022/09/28 01:40:34;;;;;;;;;;;;;;;;;;1895881;28;7054;-67
2022/09/28 01:41:35;;;;;;;;;;;;;;;;;;1895153;28;7005;-69
2022/09/28 01:42:37;;;;;;;;;;;;;;;;;;1887499;28;7085;-67
2022/09/28 01:43:38;;;;;;;;;;;;;;;;;;1889110;28;7033;-68
2022/09/28 01:44:40;;;;;;;;;;;;;;;;;;1887853;28;7005;-68
2022/09/28 01:45:42;;;;;;;;;;;;;;;;;;1883945;28;7010;-68
2022/09/28 01:46:43;;;;;;;;;;;;;;;;;;1893339;28;7144;-67
2022/09/28 01:47:44;;;;;;;;;;;;;;;;;;1891496;28;7144;-67
2022/09/28 01:48:48;;;;;;;;;;;;;;;;;;1891168;28;8115;-67
2022/09/28 01:49:50;;;;;;;;;;;;;;;;;;1893069;28;7005;-66
2022/09/28 01:50:52;;;;;;;;;;;;;;;;;;1894595;28;7255;-67
2022/09/28 01:51:58;;;;;;;;;;;;;;;;;;1891558;28;7029;-68
2022/09/28 01:53:02;;;;;;;;;;;;;;;;;;1895923;28;7005;-69
2022/09/28 01:54:06;;;;;;;;;;;;;;;;;;1890632;28;7637;-67
2022/09/28 01:55:11;;;;;;;;;;;;;;;;;;1890962;28;7034;-67
2022/09/28 01:56:15;;;;;;;;;;;;;;;;;;1881794;28;7018;-67
2022/09/28 01:57:17;;;;;;;;;;;;;;;;;;1881792;28;7392;-67
2022/09/28 01:58:22;;;;;;;;;;;;;;;;;;1893570;28;8043;-66
2022/09/28 01:59:32;;;;;;;;;;;;;;;;;;1888560;28;8111;-69
2022/09/28 02:00:29;;;;;;;;;;;;;;;;;;1889021;28;7009;-66
2022/09/28 02:01:36;;;;;;;;;;;;;;;;;;1896194;28;7038;-67
2022/09/28 02:02:38;;;;;;;;;;;;;;;;;;1896204;28;7042;-69
2022/09/28 02:03:44;;;;;;;;;;;;;;;;;;1888862;28;7034;-69
2022/09/28 02:04:47;;;;;;;;;;;;;;;;;;1893943;28;7006;-68
2022/09/28 02:06:04;;;;;;;;;;;;;;;;;;1887943;28;7089;-68
2022/09/28 02:07:19;;;;;;;;;;;;;;;;;;1892362;28;7121;-66
2022/09/28 02:08:23;;;;;;;;;;;;;;;;;;1881444;28;7006;-66
2022/09/28 02:09:41;;;;;;;;;;;;;;;;;;1873198;28;7010;-67
2022/09/28 02:10:45;;;;;;;;;;;;;;;;;;1882472;28;7014;-68
2022/09/28 02:11:49;;;;;;;;;;;;;;;;;;1889057;28;7093;-68
2022/09/28 02:12:52;;;;;;;;;;;;;;;;;;1890801;28;7324;-67
2022/09/28 02:13:58;;;;;;;;;;;;;;;;;;1894421;28;7111;-69
2022/09/28 02:15:04;;;;;;;;;;;;;;;;;;1896535;28;8031;-66
2022/09/28 02:16:10;;;;;;;;;;;;;;;;;;1890540;28;9393;-68
2022/09/28 02:17:09;;;;;;;;;;;;;;;;;;1889692;28;7994;-68
2022/09/28 02:18:07;;;;;;;;;;;;;;;;;;1889028;28;7101;-67
2022/09/28 02:19:07;;;;;;;;;;;;;;;;;;1892039;28;7006;-67
2022/09/28 02:20:06;;;;;;;;;;;;;;;;;;1889206;28;7014;-66
2022/09/28 02:21:08;;;;;;;;;;;;;;;;;;1891203;28;7089;-67
2022/09/28 02:22:05;;;;;;;;;;;;;;;;;;1888743;28;7149;-67
2022/09/28 02:23:03;;;;;;;;;;;;;;;;;;1887781;28;7107;-67
2022/09/28 02:24:05;;;;;;;;;;;;;;;;;;1894650;28;7006;-68
2022/09/28 02:25:08;;;;;;;;;;;;;;;;;;1884925;28;7093;-66
2022/09/28 02:26:10;;;;;;;;;;;;;;;;;;1886252;28;7042;-68
2022/09/28 02:27:25;;;;;;;;;;;;;;;;;;1890139;28;7046;-68
2022/09/28 02:28:23;;;;;;;;;;;;;;;;;;1890989;28;7034;-68
2022/09/28 02:29:20;;;;;;;;;;;;;;;;;;1895665;28;7092;-68
2022/09/28 02:30:17;;;;;;;;;;;;;;;;;;1893390;28;7092;-66
2022/09/28 02:31:15;;;;;;;;;;;;;;;;;;1889913;28;7113;-66
2022/09/28 02:32:13;;;;;;;;;;;;;;;;;;1891425;28;7022;-69
2022/09/28 02:33:14;;;;;;;;;;;;;;;;;;1892093;28;7010;-68
2022/09/28 02:34:11;;;;;;;;;;;;;;;;;;1888210;28;7042;-67
2022/09/28 02:35:10;;;;;;;;;;;;;;;;;;1892861;28;7088;-66
2022/09/28 02:36:08;;;;;;;;;;;;;;;;;;1895814;28;7092;-66
2022/09/28 02:37:05;;;;;;;;;;;;;;;;;;1891850;28;7105;-67
2022/09/28 02:38:03;;;;;;;;;;;;;;;;;;1881217;28;7022;-68
2022/09/28 02:39:01;;;;;;;;;;;;;;;;;;1883510;28;7021;-67
2022/09/28 02:39:58;;;;;;;;;;;;;;;;;;1887643;28;7083;-67
2022/09/28 02:41:06;;;;;;;;;;;;;;;;;;1881236;28;7053;-67
2022/09/28 02:42:17;;;;;;;;;;;;;;;;;;1884541;28;7958;-67
2022/09/28 02:43:20;;;;;;;;;;;;;;;;;;1888202;28;7092;-68
2022/09/28 02:44:20;;;;;;;;;;;;;;;;;;1887458;28;7384;-68
2022/09/28 02:45:27;;;;;;;;;;;;;;;;;;1890505;28;7096;-68
2022/09/28 02:46:27;;;;;;;;;;;;;;;;;;1888811;28;7018;-67
2022/09/28 02:48:03;;;;;;;;;;;;;;;;;;1891975;28;7014;-67
2022/09/28 02:49:03;;;;;;;;;;;;;;;;;;1846102;29;8024;-69
2022/09/28 02:50:30;;;;;;;;;;;;;;;;;;1847240;29;7050;-67
2022/09/28 02:51:46;;;;;;;;;;;;;;;;;;1851747;29;7153;-66
2022/09/28 02:53:03;;;;;;;;;;;;;;;;;;1855219;29;7093;-66
2022/09/28 02:54:26;;;;;;;;;;;;;;;;;;1854549;29;7193;-67
2022/09/28 02:55:34;;;;;;;;;;;;;;;;;;1890762;28;7014;-68
2022/09/28 02:56:34;;;;;;;;;;;;;;;;;;1886766;28;7047;-66
2022/09/28 02:57:48;;;;;;;;;;;;;;;;;;1886581;28;7132;-68
2022/09/28 02:59:03;;;;;;;;;;;;;;;;;;1893460;28;7148;-67
2022/09/28 03:00:10;;;;;;;;;;;;;;;;;;1893880;28;7296;-68
2022/09/28 03:01:28;;;;;;;;;;;;;;;;;;1889220;28;7013;-66
2022/09/28 03:02:43;;;;;;;;;;;;;;;;;;1881523;28;8108;-66
2022/09/28 03:03:49;;;;;;;;;;;;;;;;;;1891454;28;7269;-66
2022/09/28 03:04:55;;;;;;;;;;;;;;;;;;1891131;28;7046;-67
2022/09/28 03:05:55;;;;;;;;;;;;;;;;;;1890659;28;7132;-67
2022/09/28 03:07:02;;;;;;;;;;;;;;;;;;1888395;28;7014;-66
2022/09/28 03:07:59;;;;;;;;;;;;;;;;;;1888791;28;7093;-67
2022/09/28 03:09:03;;;;;;;;;;;;;;;;;;1897242;28;7897;-69
2022/09/28 03:10:00;;;;;;;;;;;;;;;;;;1892400;28;8023;-67
2022/09/28 03:11:13;;;;;;;;;;;;;;;;;;1891647;28;7010;-70
2022/09/28 03:12:13;;;;;;;;;;;;;;;;;;1895854;28;7042;-69
2022/09/28 03:13:13;;;;;;;;;;;;;;;;;;1895127;28;7014;-68
2022/09/28 03:14:11;;;;;;;;;;;;;;;;;;1893770;28;7116;-69
2022/09/28 03:15:11;;;;;;;;;;;;;;;;;;1897486;28;7096;-69
2022/09/28 03:16:13;;;;;;;;;;;;;;;;;;1897346;28;7029;-68
2022/09/28 03:17:11;;;;;;;;;;;;;;;;;;1897427;28;7096;-68
2022/09/28 03:18:08;;;;;;;;;;;;;;;;;;1896296;28;7251;-69
2022/09/28 03:19:05;;;;;;;;;;;;;;;;;;1895106;28;7037;-68
2022/09/28 03:20:04;;;;;;;;;;;;;;;;;;1895987;28;7100;-69
2022/09/28 03:21:02;;;;;;;;;;;;;;;;;;1896541;28;7315;-69
2022/09/28 03:22:00;;;;;;;;;;;;;;;;;;1896536;28;7014;-68
2022/09/28 03:22:57;;;;;;;;;;;;;;;;;;1896941;28;8055;-69
2022/09/28 03:24:15;;;;;;;;;;;;;;;;;;1895612;28;7038;-69
2022/09/28 03:25:14;;;;;;;;;;;;;;;;;;1896060;28;7406;-68
2022/09/28 03:26:12;;;;;;;;;;;;;;;;;;1897755;28;7050;-68
2022/09/28 03:27:09;;;;;;;;;;;;;;;;;;1897398;28;7096;-68
2022/09/28 03:28:06;;;;;;;;;;;;;;;;;;1897213;28;7013;-68
2022/09/28 03:29:04;;;;;;;;;;;;;;;;;;1896940;28;7097;-67
2022/09/28 03:30:02;;;;;;;;;;;;;;;;;;1897121;28;7120;-68
2022/09/28 03:30:59;;;;;;;;;;;;;;;;;;1896782;28;7017;-68
2022/09/28 03:31:56;;;;;;;;;;;;;;;;;;1897415;28;7037;-69
2022/09/28 03:32:58;;;;;;;;;;;;;;;;;;1902448;28;9089;-68
2022/09/28 03:33:55;;;;;;;;;;;;;;;;;;1894190;28;7096;-69
2022/09/28 03:34:53;;;;;;;;;;;;;;;;;;1896247;28;7025;-68
2022/09/28 03:35:51;;;;;;;;;;;;;;;;;;1896933;28;7483;-67
2022/09/28 03:36:48;;;;;;;;;;;;;;;;;;1897556;28;10117;-69
2022/09/28 03:37:45;;;;;;;;;;;;;;;;;;1895855;28;7009;-68
2022/09/28 03:38:43;;;;;;;;;;;;;;;;;;1897510;28;7027;-68
2022/09/28 03:39:40;;;;;;;;;;;;;;;;;;1896781;28;7013;-68
2022/09/28 03:40:37;;;;;;;;;;;;;;;;;;1897198;28;7009;-68
2022/09/28 03:41:35;;;;;;;;;;;;;;;;;;1896897;28;7412;-69
2022/09/28 03:42:34;;;;;;;;;;;;;;;;;;1897279;28;7093;-68
2022/09/28 03:43:31;;;;;;;;;;;;;;;;;;1896768;28;8117;-68
2022/09/28 03:44:28;;;;;;;;;;;;;;;;;;1896258;28;7317;-68
2022/09/28 03:45:26;;;;;;;;;;;;;;;;;;1895735;28;7005;-67
2022/09/28 03:46:23;;;;;;;;;;;;;;;;;;1897587;28;7181;-68
2022/09/28 03:47:21;;;;;;;;;;;;;;;;;;1897516;28;8011;-67
2022/09/28 03:48:25;;;;;;;;;;;;;;;;;;1897157;28;8031;-68
2022/09/28 03:49:28;;;;;;;;;;;;;;;;;;1896620;28;7372;-68
2022/09/28 03:50:26;;;;;;;;;;;;;;;;;;1897505;28;7022;-68
2022/09/28 03:51:23;;;;;;;;;;;;;;;;;;1896551;28;7446;-68
2022/09/28 03:52:20;;;;;;;;;;;;;;;;;;1896070;28;8099;-69
2022/09/28 03:53:18;;;;;;;;;;;;;;;;;;1897702;28;7010;-67
2022/09/28 03:54:15;;;;;;;;;;;;;;;;;;1897735;28;7138;-68
2022/09/28 03:55:12;;;;;;;;;;;;;;;;;;1897987;28;8043;-68
2022/09/28 03:56:12;;;;;;;;;;;;;;;;;;1896555;28;7013;-68
2022/09/28 03:57:09;;;;;;;;;;;;;;;;;;1896158;28;7010;-66
2022/09/28 03:58:06;;;;;;;;;;;;;;;;;;1897030;28;7025;-68
2022/09/28 03:59:04;;;;;;;;;;;;;;;;;;1896840;28;7634;-66
2022/09/28 04:00:03;;;;;;;;;;;;;;;;;;1897193;28;7013;-68
2022/09/28 04:01:04;;;;;;;;;;;;;;;;;;1897142;28;7030;-66
2022/09/28 04:02:02;;;;;;;;;;;;;;;;;;1895575;28;7025;-68
2022/09/28 04:03:00;;;;;;;;;;;;;;;;;;1897300;28;7010;-68
2022/09/28 04:03:58;;;;;;;;;;;;;;;;;;1897554;28;7309;-67
2022/09/28 04:04:55;;;;;;;;;;;;;;;;;;1896892;28;7046;-68
2022/09/28 04:05:53;;;;;;;;;;;;;;;;;;1896359;28;8043;-68
2022/09/28 04:06:50;;;;;;;;;;;;;;;;;;1896939;28;7005;-68
2022/09/28 04:07:47;;;;;;;;;;;;;;;;;;1897131;28;7034;-68
2022/09/28 04:08:45;;;;;;;;;;;;;;;;;;1897185;28;7029;-68
2022/09/28 04:09:42;;;;;;;;;;;;;;;;;;1897734;28;7096;-67
2022/09/28 04:10:39;;;;;;;;;;;;;;;;;;1895847;28;7332;-68
2022/09/28 04:11:37;;;;;;;;;;;;;;;;;;1896501;28;7029;-69
2022/09/28 04:12:55;;;;;;;;;;;;;;;;;;1895718;28;8043;-69
2022/09/28 04:13:52;;;;;;;;;;;;;;;;;;1895994;28;7021;-67
2022/09/28 04:14:50;;;;;;;;;;;;;;;;;;1896456;28;7409;-67
2022/09/28 04:15:55;;;;;;;;;;;;;;;;;;1891238;28;8490;-68
2022/09/28 04:16:53;;;;;;;;;;;;;;;;;;1893032;28;7229;-68
2022/09/28 04:17:51;;;;;;;;;;;;;;;;;;1896278;28;7005;-69
2022/09/28 04:18:48;;;;;;;;;;;;;;;;;;1890443;28;7030;-68
2022/09/28 04:19:46;;;;;;;;;;;;;;;;;;1891828;28;7190;-68
2022/09/28 04:20:45;;;;;;;;;;;;;;;;;;1893863;28;7096;-68
2022/09/28 04:21:42;;;;;;;;;;;;;;;;;;1893723;28;7018;-67
2022/09/28 04:22:39;;;;;;;;;;;;;;;;;;1891997;28;7132;-68
2022/09/28 04:23:38;;;;;;;;;;;;;;;;;;1887290;28;7014;-68
2022/09/28 04:24:35;;;;;;;;;;;;;;;;;;1891560;28;7042;-67
2022/09/28 04:25:33;;;;;;;;;;;;;;;;;;1893890;28;7025;-68
2022/09/28 04:26:30;;;;;;;;;;;;;;;;;;1889696;28;7093;-69
2022/09/28 04:30:02;;;;;;;;;;;;;;;;;;1891274;28;7014;-67
2022/09/28 04:31:00;;;;;;;;;;;;;;;;;;1883251;28;7092;-68
2022/09/28 04:31:58;;;;;;;;;;;;;;;;;;1873189;28;7010;-69
2022/09/28 04:32:56;;;;;;;;;;;;;;;;;;1888763;28;7037;-69
2022/09/28 04:33:53;;;;;;;;;;;;;;;;;;1879486;28;7038;-67
2022/09/28 04:34:50;;;;;;;;;;;;;;;;;;1882001;28;7021;-67
2022/09/28 04:35:48;;;;;;;;;;;;;;;;;;1887456;28;7046;-68
2022/09/28 04:36:46;;;;;;;;;;;;;;;;;;1886110;28;7006;-69
2022/09/28 04:37:43;;;;;;;;;;;;;;;;;;1895496;28;7097;-69
2022/09/28 04:38:41;;;;;;;;;;;;;;;;;;1894509;28;7006;-69
2022/09/28 04:39:49;;;;;;;;;;;;;;;;;;1897093;28;7009;-66
2022/09/28 04:40:48;;;;;;;;;;;;;;;;;;1893355;28;7042;-67
2022/09/28 04:41:47;;;;;;;;;;;;;;;;;;1895434;28;7106;-68
2022/09/28 04:42:51;;;;;;;;;;;;;;;;;;1889763;28;7010;-68
2022/09/28 04:43:49;;;;;;;;;;;;;;;;;;1891553;28;7006;-68
2022/09/28 04:44:46;;;;;;;;;;;;;;;;;;1895413;28;7102;-68
2022/09/28 04:45:43;;;;;;;;;;;;;;;;;;1894868;28;7041;-69
2022/09/28 04:46:41;;;;;;;;;;;;;;;;;;1896323;28;7009;-69
2022/09/28 04:47:38;;;;;;;;;;;;;;;;;;1891683;28;7037;-68
2022/09/28 04:48:36;;;;;;;;;;;;;;;;;;1892467;28;7014;-67
2022/09/28 04:49:35;;;;;;;;;;;;;;;;;;1894442;28;7050;-68
2022/09/28 04:50:33;;;;;;;;;;;;;;;;;;1889777;28;7460;-68
2022/09/28 04:51:30;;;;;;;;;;;;;;;;;;1889349;28;7026;-68
2022/09/28 04:52:28;;;;;;;;;;;;;;;;;;1889025;28;7088;-69
2022/09/28 04:53:26;;;;;;;;;;;;;;;;;;1889660;28;7049;-68
2022/09/28 04:54:23;;;;;;;;;;;;;;;;;;1896640;28;7327;-67
2022/09/28 04:55:21;;;;;;;;;;;;;;;;;;1893321;28;7029;-68
2022/09/28 04:56:18;;;;;;;;;;;;;;;;;;1889816;28;7046;-69
2022/09/28 04:57:15;;;;;;;;;;;;;;;;;;1896891;28;7013;-67
2022/09/28 04:58:13;;;;;;;;;;;;;;;;;;1896406;28;7113;-67
2022/09/28 04:59:11;;;;;;;;;;;;;;;;;;1896609;28;8106;-68
2022/09/28 05:00:09;;;;;;;;;;;;;;;;;;1896567;28;7010;-68
2022/09/28 05:01:11;;;;;;;;;;;;;;;;;;1894570;28;7107;-68
2022/09/28 05:02:09;;;;;;;;;;;;;;;;;;1886541;28;7142;-68
2022/09/28 05:03:06;;;;;;;;;;;;;;;;;;1888564;28;7009;-68
2022/09/28 05:04:03;;;;;;;;;;;;;;;;;;1891129;28;7033;-69
2022/09/28 05:05:01;;;;;;;;;;;;;;;;;;1896356;28;7006;-68
2022/09/28 05:05:58;;;;;;;;;;;;;;;;;;1892487;28;7005;-68
2022/09/28 05:06:56;;;;;;;;;;;;;;;;;;1889485;28;7152;-69
2022/09/28 05:07:56;;;;;;;;;;;;;;;;;;1889501;28;7013;-67
2022/09/28 05:08:56;;;;;;;;;;;;;;;;;;1890918;28;7106;-68
2022/09/28 05:09:54;;;;;;;;;;;;;;;;;;1895221;28;7018;-69
2022/09/28 05:11:12;;;;;;;;;;;;;;;;;;1893720;28;7014;-69
2022/09/28 05:12:10;;;;;;;;;;;;;;;;;;1890016;28;7077;-68
2022/09/28 05:13:08;;;;;;;;;;;;;;;;;;1876804;28;8106;-68
2022/09/28 05:14:05;;;;;;;;;;;;;;;;;;1891548;28;7005;-68
2022/09/28 05:15:03;;;;;;;;;;;;;;;;;;1895904;28;7009;-68
2022/09/28 05:16:00;;;;;;;;;;;;;;;;;;1895908;28;7085;-67
2022/09/28 05:17:01;;;;;;;;;;;;;;;;;;1896759;28;7053;-67
2022/09/28 05:17:59;;;;;;;;;;;;;;;;;;1896949;28;7013;-67
2022/09/28 05:18:56;;;;;;;;;;;;;;;;;;1897298;28;7113;-69
2022/09/28 05:19:53;;;;;;;;;;;;;;;;;;1897541;28;7094;-68
2022/09/28 05:20:51;;;;;;;;;;;;;;;;;;1897102;28;7009;-67
2022/09/28 05:21:48;;;;;;;;;;;;;;;;;;1896924;28;8421;-67
2022/09/28 05:22:46;;;;;;;;;;;;;;;;;;1895841;28;7096;-68
2022/09/28 05:23:46;;;;;;;;;;;;;;;;;;1896089;28;7140;-68
2022/09/28 05:24:45;;;;;;;;;;;;;;;;;;1895907;28;7009;-67
2022/09/28 05:25:44;;;;;;;;;;;;;;;;;;1896598;28;7010;-67
2022/09/28 05:26:41;;;;;;;;;;;;;;;;;;1896972;28;7017;-67
2022/09/28 05:27:38;;;;;;;;;;;;;;;;;;1896496;28;8163;-68
2022/09/28 05:28:36;;;;;;;;;;;;;;;;;;1895127;28;8039;-69
2022/09/28 05:29:33;;;;;;;;;;;;;;;;;;1896524;28;7010;-67
2022/09/28 05:30:30;;;;;;;;;;;;;;;;;;1896736;28;7145;-69
2022/09/28 05:31:28;;;;;;;;;;;;;;;;;;1896655;28;7042;-67
2022/09/28 05:32:25;;;;;;;;;;;;;;;;;;1896169;28;7006;-68
2022/09/28 05:33:22;;;;;;;;;;;;;;;;;;1896584;28;7131;-67
2022/09/28 05:34:20;;;;;;;;;;;;;;;;;;1896352;28;7002;-67
2022/09/28 05:35:17;;;;;;;;;;;;;;;;;;1895367;28;7029;-68
2022/09/28 05:36:14;;;;;;;;;;;;;;;;;;1894975;28;7014;-67
2022/09/28 05:37:12;;;;;;;;;;;;;;;;;;1895909;28;7029;-68
2022/09/28 05:38:09;;;;;;;;;;;;;;;;;;1902730;28;7050;-68
2022/09/28 05:39:08;;;;;;;;;;;;;;;;;;1903125;28;7316;-67
2022/09/28 05:40:06;;;;;;;;;;;;;;;;;;1896550;28;7117;-67
2022/09/28 05:41:03;;;;;;;;;;;;;;;;;;1896696;28;7120;-68
2022/09/28 05:42:03;;;;;;;;;;;;;;;;;;1896126;28;7087;-67
2022/09/28 05:43:01;;;;;;;;;;;;;;;;;;1895138;28;7224;-69
2022/09/28 05:43:58;;;;;;;;;;;;;;;;;;1896486;28;7006;-67
2022/09/28 05:44:57;;;;;;;;;;;;;;;;;;1895605;28;8346;-68
2022/09/28 05:45:55;;;;;;;;;;;;;;;;;;1894138;28;7010;-68
2022/09/28 05:46:53;;;;;;;;;;;;;;;;;;1895951;28;7013;-68
2022/09/28 05:47:50;;;;;;;;;;;;;;;;;;1894899;28;9472;-67
2022/09/28 05:48:50;;;;;;;;;;;;;;;;;;1895344;28;7463;-67
2022/09/28 05:49:47;;;;;;;;;;;;;;;;;;1896247;28;7093;-67
2022/09/28 05:50:49;;;;;;;;;;;;;;;;;;1896186;28;7021;-68
2022/09/28 05:51:46;;;;;;;;;;;;;;;;;;1895265;28;7017;-68
2022/09/28 05:52:43;;;;;;;;;;;;;;;;;;1895548;28;7288;-69
2022/09/28 05:53:41;;;;;;;;;;;;;;;;;;1892145;28;7001;-68
2022/09/28 05:54:38;;;;;;;;;;;;;;;;;;1896519;28;7005;-67
2022/09/28 05:55:36;;;;;;;;;;;;;;;;;;1896303;28;7021;-68
2022/09/28 05:56:33;;;;;;;;;;;;;;;;;;1896222;28;7116;-66
2022/09/28 05:57:31;;;;;;;;;;;;;;;;;;1896382;28;7010;-67
2022/09/28 05:58:28;;;;;;;;;;;;;;;;;;1896467;28;7089;-67
2022/09/28 05:59:25;;;;;;;;;;;;;;;;;;1896210;28;7084;-68
2022/09/28 06:00:23;;;;;;;;;;;;;;;;;;1896417;28;7005;-67
2022/09/28 06:01:20;;;;;;;;;;;;;;;;;;1896245;28;8035;-68
2022/09/28 06:02:17;;;;;;;;;;;;;;;;;;1896391;28;7002;-67
2022/09/28 06:03:15;;;;;;;;;;;;;;;;;;1895665;28;8025;-68
2022/09/28 06:04:14;;;;;;;;;;;;;;;;;;1894181;28;7009;-68
2022/09/28 06:05:12;;;;;;;;;;;;;;;;;;1895612;28;7006;-68
2022/09/28 06:06:09;;;;;;;;;;;;;;;;;;1895794;28;7017;-68
2022/09/28 06:07:07;;;;;;;;;;;;;;;;;;1894748;28;7109;-68
2022/09/28 06:08:06;;;;;;;;;;;;;;;;;;1896013;28;8039;-67
2022/09/28 06:09:03;;;;;;;;;;;;;;;;;;1896523;28;8012;-68
2022/09/28 06:10:00;;;;;;;;;;;;;;;;;;1897004;28;8087;-67
2022/09/28 06:10:59;;;;;;;;;;;;;;;;;;1896132;28;8007;-68
2022/09/28 06:11:59;;;;;;;;;;;;;;;;;;1896252;28;7097;-68
2022/09/28 06:12:57;;;;;;;;;;;;;;;;;;1896212;28;7040;-67
2022/09/28 06:13:54;;;;;;;;;;;;;;;;;;1895529;28;7036;-67
2022/09/28 06:14:51;;;;;;;;;;;;;;;;;;1891166;28;7009;-68
2022/09/28 06:15:49;;;;;;;;;;;;;;;;;;1889854;28;7022;-68
2022/09/28 06:16:46;;;;;;;;;;;;;;;;;;1895971;28;7387;-68
2022/09/28 06:17:43;;;;;;;;;;;;;;;;;;1892049;28;7010;-68
2022/09/28 06:18:41;;;;;;;;;;;;;;;;;;1891543;28;7038;-68
2022/09/28 06:19:38;;;;;;;;;;;;;;;;;;1890321;28;7216;-69
2022/09/28 06:20:40;;;;;;;;;;;;;;;;;;1892480;28;8027;-69
2022/09/28 06:21:37;;;;;;;;;;;;;;;;;;1889051;28;7009;-68
2022/09/28 06:22:34;;;;;;;;;;;;;;;;;;1887254;28;8015;-68
2022/09/28 06:23:32;;;;;;;;;;;;;;;;;;1888511;28;7112;-68
2022/09/28 06:24:29;;;;;;;;;;;;;;;;;;1890485;28;7096;-68
2022/09/28 06:25:26;;;;;;;;;;;;;;;;;;1890060;28;7106;-68
2022/09/28 06:26:24;;;;;;;;;;;;;;;;;;1895858;28;7050;-68
2022/09/28 06:27:21;;;;;;;;;;;;;;;;;;1894766;28;7085;-68
2022/09/28 06:28:19;;;;;;;;;;;;;;;;;;1895328;28;7006;-67
2022/09/28 06:29:17;;;;;;;;;;;;;;;;;;1890576;28;7003;-66
2022/09/28 06:30:16;;;;;;;;;;;;;;;;;;1893383;28;7022;-68
2022/09/28 06:31:14;;;;;;;;;;;;;;;;;;1889742;28;8108;-68
2022/09/28 06:32:12;;;;;;;;;;;;;;;;;;1889366;28;8032;-67
2022/09/28 06:33:12;;;;;;;;;;;;;;;;;;1896301;28;7438;-67
2022/09/28 06:34:10;;;;;;;;;;;;;;;;;;1889056;28;8107;-67
2022/09/28 06:35:08;;;;;;;;;;;;;;;;;;1889056;28;7220;-67
2022/09/28 06:36:06;;;;;;;;;;;;;;;;;;1887873;28;7006;-68
2022/09/28 06:37:04;;;;;;;;;;;;;;;;;;1896506;28;7006;-66
2022/09/28 06:38:01;;;;;;;;;;;;;;;;;;1889270;28;7006;-67
2022/09/28 06:38:59;;;;;;;;;;;;;;;;;;1893743;28;7152;-67
2022/09/28 06:39:56;;;;;;;;;;;;;;;;;;1885120;28;7031;-68
2022/09/28 06:40:55;;;;;;;;;;;;;;;;;;1873390;28;7022;-68
2022/09/28 06:41:52;;;;;;;;;;;;;;;;;;1881601;28;7014;-67
2022/09/28 06:43:05;;;;;;;;;;;;;;;;;;1888649;28;7096;-68
2022/09/28 06:44:03;;;;;;;;;;;;;;;;;;1881769;28;7014;-68
2022/09/28 06:45:01;;;;;;;;;;;;;;;;;;1885726;28;7006;-67
2022/09/28 06:45:59;;;;;;;;;;;;;;;;;;1896286;28;7097;-68
2022/09/28 06:46:56;;;;;;;;;;;;;;;;;;1889365;28;7017;-67
2022/09/28 06:47:58;;;;;;;;;;;;;;;;;;1889406;28;7033;-69
2022/09/28 06:48:55;;;;;;;;;;;;;;;;;;1894996;28;7025;-68
2022/09/28 06:49:54;;;;;;;;;;;;;;;;;;1892508;28;7006;-68
2022/09/28 06:50:51;;;;;;;;;;;;;;;;;;1882481;28;7042;-67
2022/09/28 06:51:48;;;;;;;;;;;;;;;;;;1887808;28;7014;-68
2022/09/28 06:52:48;;;;;;;;;;;;;;;;;;1894466;28;7097;-67
2022/09/28 06:53:45;;;;;;;;;;;;;;;;;;1894768;28;7113;-68
2022/09/28 06:54:43;;;;;;;;;;;;;;;;;;1897820;28;7005;-69
2022/09/28 06:55:41;;;;;;;;;;;;;;;;;;1894628;28;7092;-68
2022/09/28 06:56:38;;;;;;;;;;;;;;;;;;1890146;28;7113;-68
2022/09/28 06:57:36;;;;;;;;;;;;;;;;;;1889732;28;7046;-67
2022/09/28 06:58:33;;;;;;;;;;;;;;;;;;1889719;28;7010;-68
2022/09/28 06:59:31;;;;;;;;;;;;;;;;;;1887670;28;7028;-69
2022/09/28 07:00:31;;;;;;;;;;;;;;;;;;1893276;28;7113;-69